sensor_id;sensor_type;location;lat;lon;timestamp;P1;durP1;ratioP1;P2;durP2;ratioP2
40717;SDS011;26405;51.850;-2.246;2022-11-20T00:01:40;15.38;;;5.07;;
40717;SDS011;26405;51.850;-2.246;2022-11-20T00:04:05;16.77;;;5.30;;
40717;SDS011;26405;51.850;-2.246;2022-11-20T00:06:31;14.55;;;5.28;;
40717;SDS011;26405;51.850;-2.246;2022-11-20T00:08:57;16.17;;;4.78;;
40717;SDS011;26405;51.850;-2.246;2022-11-20T00:11:23;19.33;;;6.23;;
40717;SDS011;26405;51.850;-2.246;2022-11-20T00:13:51;21.48;;;7.47;;
40717;SDS011;26405;51.850;-2.246;2022-11-20T00:16:18;19.23;;;7.25;;
40717;SDS011;26405;51.850;-2.246;2022-11-20T00:21:14;19.30;;;7.18;;
40717;SDS011;26405;51.850;-2.246;2022-11-20T00:23:39;18.42;;;7.00;;
40717;SDS011;26405;51.850;-2.246;2022-11-20T00:26:05;16.65;;;6.00;;
40717;SDS011;26405;51.850;-2.246;2022-11-20T00:28:31;15.80;;;5.43;;
40717;SDS011;26405;51.850;-2.246;2022-11-20T00:31:00;19.27;;;7.55;;
40717;SDS011;26405;51.850;-2.246;2022-11-20T00:33:29;17.38;;;7.15;;
40717;SDS011;26405;51.850;-2.246;2022-11-20T00:36:01;14.80;;;5.20;;
40717;SDS011;26405;51.850;-2.246;2022-11-20T00:38:27;13.45;;;4.78;;
40717;SDS011;26405;51.850;-2.246;2022-11-20T00:40:59;15.57;;;4.30;;
40717;SDS011;26405;51.850;-2.246;2022-11-20T00:43:25;13.88;;;4.60;;
40717;SDS011;26405;51.850;-2.246;2022-11-20T00:45:50;9.68;;;3.50;;
40717;SDS011;26405;51.850;-2.246;2022-11-20T00:48:16;10.57;;;3.83;;
40717;SDS011;26405;51.850;-2.246;2022-11-20T00:50:41;9.35;;;2.75;;
40717;SDS011;26405;51.850;-2.246;2022-11-20T00:53:09;9.07;;;3.20;;
40717;SDS011;26405;51.850;-2.246;2022-11-20T00:55:35;9.35;;;3.38;;
40717;SDS011;26405;51.850;-2.246;2022-11-20T00:58:00;9.50;;;3.15;;
40717;SDS011;26405;51.850;-2.246;2022-11-20T01:00:25;9.85;;;3.00;;
40717;SDS011;26405;51.850;-2.246;2022-11-20T01:02:50;8.60;;;3.35;;
40717;SDS011;26405;51.850;-2.246;2022-11-20T01:05:16;7.78;;;3.05;;
40717;SDS011;26405;51.850;-2.246;2022-11-20T01:07:41;6.30;;;3.13;;
40717;SDS011;26405;51.850;-2.246;2022-11-20T01:10:06;7.47;;;3.30;;
40717;SDS011;26405;51.850;-2.246;2022-11-20T01:12:32;9.95;;;2.90;;
40717;SDS011;26405;51.850;-2.246;2022-11-20T01:14:57;9.98;;;3.17;;
40717;SDS011;26405;51.850;-2.246;2022-11-20T01:17:22;10.43;;;3.13;;
40717;SDS011;26405;51.850;-2.246;2022-11-20T01:19:48;7.55;;;3.00;;
40717;SDS011;26405;51.850;-2.246;2022-11-20T01:22:14;7.45;;;2.50;;
40717;SDS011;26405;51.850;-2.246;2022-11-20T01:24:40;7.13;;;2.47;;
40717;SDS011;26405;51.850;-2.246;2022-11-20T01:27:05;11.80;;;2.90;;
40717;SDS011;26405;51.850;-2.246;2022-11-20T01:29:30;7.75;;;2.78;;
40717;SDS011;26405;51.850;-2.246;2022-11-20T01:31:56;6.70;;;2.63;;
40717;SDS011;26405;51.850;-2.246;2022-11-20T01:34:21;6.95;;;2.42;;
40717;SDS011;26405;51.850;-2.246;2022-11-20T01:36:47;5.60;;;2.58;;
40717;SDS011;26405;51.850;-2.246;2022-11-20T01:39:14;6.90;;;2.50;;
40717;SDS011;26405;51.850;-2.246;2022-11-20T01:41:39;6.35;;;2.22;;
40717;SDS011;26405;51.850;-2.246;2022-11-20T01:47:08;5.50;;;2.30;;
40717;SDS011;26405;51.850;-2.246;2022-11-20T01:49:37;4.20;;;2.17;;
40717;SDS011;26405;51.850;-2.246;2022-11-20T01:52:14;5.35;;;2.10;;
40717;SDS011;26405;51.850;-2.246;2022-11-20T01:54:43;6.95;;;2.42;;
40717;SDS011;26405;51.850;-2.246;2022-11-20T01:57:11;8.68;;;3.20;;
40717;SDS011;26405;51.850;-2.246;2022-11-20T01:59:38;5.72;;;2.20;;
40717;SDS011;26405;51.850;-2.246;2022-11-20T02:02:08;6.78;;;2.20;;
40717;SDS011;26405;51.850;-2.246;2022-11-20T02:04:34;3.83;;;2.20;;
40717;SDS011;26405;51.850;-2.246;2022-11-20T02:07:00;6.75;;;2.20;;
40717;SDS011;26405;51.850;-2.246;2022-11-20T02:09:26;4.72;;;2.17;;
40717;SDS011;26405;51.850;-2.246;2022-11-20T02:11:52;3.75;;;2.03;;
40717;SDS011;26405;51.850;-2.246;2022-11-20T02:14:18;4.18;;;2.15;;
40717;SDS011;26405;51.850;-2.246;2022-11-20T02:16:48;3.17;;;1.73;;
40717;SDS011;26405;51.850;-2.246;2022-11-20T02:19:26;5.70;;;2.05;;
40717;SDS011;26405;51.850;-2.246;2022-11-20T02:24:35;3.38;;;2.15;;
40717;SDS011;26405;51.850;-2.246;2022-11-20T02:29:32;2.60;;;2.03;;
40717;SDS011;26405;51.850;-2.246;2022-11-20T02:31:58;2.45;;;1.80;;
40717;SDS011;26405;51.850;-2.246;2022-11-20T02:34:25;2.85;;;1.90;;
40717;SDS011;26405;51.850;-2.246;2022-11-20T02:36:51;2.85;;;1.77;;
40717;SDS011;26405;51.850;-2.246;2022-11-20T02:39:17;2.70;;;1.70;;
40717;SDS011;26405;51.850;-2.246;2022-11-20T02:41:42;3.45;;;1.80;;
40717;SDS011;26405;51.850;-2.246;2022-11-20T02:44:08;2.65;;;1.58;;
40717;SDS011;26405;51.850;-2.246;2022-11-20T02:46:33;2.97;;;1.63;;
40717;SDS011;26405;51.850;-2.246;2022-11-20T02:49:00;2.35;;;1.40;;
40717;SDS011;26405;51.850;-2.246;2022-11-20T02:51:25;2.70;;;1.40;;
40717;SDS011;26405;51.850;-2.246;2022-11-20T02:53:50;1.65;;;1.50;;
40717;SDS011;26405;51.850;-2.246;2022-11-20T02:56:16;2.08;;;1.55;;
40717;SDS011;26405;51.850;-2.246;2022-11-20T02:58:41;2.28;;;1.80;;
40717;SDS011;26405;51.850;-2.246;2022-11-20T03:01:06;1.67;;;1.52;;
40717;SDS011;26405;51.850;-2.246;2022-11-20T03:03:32;1.58;;;1.45;;
40717;SDS011;26405;51.850;-2.246;2022-11-20T03:06:00;1.60;;;1.45;;
40717;SDS011;26405;51.850;-2.246;2022-11-20T03:08:25;1.70;;;1.42;;
40717;SDS011;26405;51.850;-2.246;2022-11-20T03:10:51;1.75;;;1.50;;
40717;SDS011;26405;51.850;-2.246;2022-11-20T03:13:16;3.00;;;1.50;;
40717;SDS011;26405;51.850;-2.246;2022-11-20T03:15:42;2.33;;;1.67;;
40717;SDS011;26405;51.850;-2.246;2022-11-20T03:18:07;1.35;;;1.20;;
40717;SDS011;26405;51.850;-2.246;2022-11-20T03:20:33;1.48;;;1.38;;
40717;SDS011;26405;51.850;-2.246;2022-11-20T03:22:58;2.13;;;1.35;;
40717;SDS011;26405;51.850;-2.246;2022-11-20T03:25:24;2.53;;;1.70;;
40717;SDS011;26405;51.850;-2.246;2022-11-20T03:27:49;1.90;;;1.48;;
40717;SDS011;26405;51.850;-2.246;2022-11-20T03:30:14;3.70;;;1.60;;
40717;SDS011;26405;51.850;-2.246;2022-11-20T03:32:40;1.77;;;1.30;;
40717;SDS011;26405;51.850;-2.246;2022-11-20T03:35:05;2.60;;;1.80;;
40717;SDS011;26405;51.850;-2.246;2022-11-20T03:37:31;2.83;;;1.70;;
40717;SDS011;26405;51.850;-2.246;2022-11-20T03:39:56;2.30;;;1.70;;
40717;SDS011;26405;51.850;-2.246;2022-11-20T03:42:24;1.88;;;1.58;;
40717;SDS011;26405;51.850;-2.246;2022-11-20T03:45:08;3.47;;;1.55;;
40717;SDS011;26405;51.850;-2.246;2022-11-20T03:47:36;1.80;;;1.50;;
40717;SDS011;26405;51.850;-2.246;2022-11-20T03:50:02;3.00;;;1.67;;
40717;SDS011;26405;51.850;-2.246;2022-11-20T03:52:27;1.65;;;1.50;;
40717;SDS011;26405;51.850;-2.246;2022-11-20T03:54:52;1.95;;;1.08;;
40717;SDS011;26405;51.850;-2.246;2022-11-20T03:57:18;1.10;;;1.00;;
40717;SDS011;26405;51.850;-2.246;2022-11-20T03:59:43;0.80;;;0.80;;
40717;SDS011;26405;51.850;-2.246;2022-11-20T04:02:08;1.00;;;1.00;;
40717;SDS011;26405;51.850;-2.246;2022-11-20T04:04:34;1.20;;;1.10;;
40717;SDS011;26405;51.850;-2.246;2022-11-20T04:06:59;1.15;;;0.90;;
40717;SDS011;26405;51.850;-2.246;2022-11-20T04:09:24;1.00;;;1.00;;
40717;SDS011;26405;51.850;-2.246;2022-11-20T04:11:49;1.13;;;1.08;;
40717;SDS011;26405;51.850;-2.246;2022-11-20T04:14:15;0.85;;;0.85;;
40717;SDS011;26405;51.850;-2.246;2022-11-20T04:16:41;0.90;;;0.90;;
40717;SDS011;26405;51.850;-2.246;2022-11-20T04:19:09;3.60;;;1.20;;
40717;SDS011;26405;51.850;-2.246;2022-11-20T04:21:34;2.97;;;1.00;;
40717;SDS011;26405;51.850;-2.246;2022-11-20T04:24:00;1.33;;;1.23;;
40717;SDS011;26405;51.850;-2.246;2022-11-20T04:26:26;2.22;;;1.00;;
40717;SDS011;26405;51.850;-2.246;2022-11-20T04:28:52;0.93;;;0.93;;
40717;SDS011;26405;51.850;-2.246;2022-11-20T04:31:18;0.95;;;0.95;;
40717;SDS011;26405;51.850;-2.246;2022-11-20T04:33:44;1.10;;;1.00;;
40717;SDS011;26405;51.850;-2.246;2022-11-20T04:36:19;1.45;;;1.20;;
40717;SDS011;26405;51.850;-2.246;2022-11-20T04:38:45;2.15;;;1.20;;
40717;SDS011;26405;51.850;-2.246;2022-11-20T04:41:13;2.30;;;1.40;;
40717;SDS011;26405;51.850;-2.246;2022-11-20T04:43:39;1.45;;;1.15;;
40717;SDS011;26405;51.850;-2.246;2022-11-20T04:46:04;1.50;;;1.40;;
40717;SDS011;26405;51.850;-2.246;2022-11-20T04:48:29;3.08;;;1.48;;
40717;SDS011;26405;51.850;-2.246;2022-11-20T04:50:55;1.85;;;1.60;;
40717;SDS011;26405;51.850;-2.246;2022-11-20T04:53:20;1.50;;;1.40;;
40717;SDS011;26405;51.850;-2.246;2022-11-20T04:55:46;2.90;;;1.40;;
40717;SDS011;26405;51.850;-2.246;2022-11-20T04:58:11;2.08;;;1.52;;
40717;SDS011;26405;51.850;-2.246;2022-11-20T05:00:37;1.92;;;1.27;;
40717;SDS011;26405;51.850;-2.246;2022-11-20T05:03:02;3.28;;;1.60;;
40717;SDS011;26405;51.850;-2.246;2022-11-20T05:05:27;2.60;;;1.67;;
40717;SDS011;26405;51.850;-2.246;2022-11-20T05:07:55;3.75;;;1.63;;
40717;SDS011;26405;51.850;-2.246;2022-11-20T05:10:20;2.42;;;1.45;;
40717;SDS011;26405;51.850;-2.246;2022-11-20T05:12:45;2.28;;;1.67;;
40717;SDS011;26405;51.850;-2.246;2022-11-20T05:15:11;2.22;;;1.48;;
40717;SDS011;26405;51.850;-2.246;2022-11-20T05:17:36;2.38;;;1.77;;
40717;SDS011;26405;51.850;-2.246;2022-11-20T05:20:01;1.67;;;1.48;;
40717;SDS011;26405;51.850;-2.246;2022-11-20T05:22:26;1.55;;;1.35;;
40717;SDS011;26405;51.850;-2.246;2022-11-20T05:24:52;4.38;;;1.70;;
40717;SDS011;26405;51.850;-2.246;2022-11-20T05:27:20;2.92;;;1.60;;
40717;SDS011;26405;51.850;-2.246;2022-11-20T05:29:45;1.48;;;1.25;;
40717;SDS011;26405;51.850;-2.246;2022-11-20T05:32:10;1.98;;;1.60;;
40717;SDS011;26405;51.850;-2.246;2022-11-20T05:34:35;3.00;;;1.65;;
40717;SDS011;26405;51.850;-2.246;2022-11-20T05:37:01;1.50;;;1.40;;
40717;SDS011;26405;51.850;-2.246;2022-11-20T05:39:27;2.50;;;1.60;;
40717;SDS011;26405;51.850;-2.246;2022-11-20T05:41:52;2.85;;;1.80;;
40717;SDS011;26405;51.850;-2.246;2022-11-20T05:44:37;2.85;;;1.60;;
40717;SDS011;26405;51.850;-2.246;2022-11-20T05:47:02;3.13;;;1.75;;
40717;SDS011;26405;51.850;-2.246;2022-11-20T05:49:28;1.92;;;1.70;;
40717;SDS011;26405;51.850;-2.246;2022-11-20T05:51:53;3.70;;;1.60;;
40717;SDS011;26405;51.850;-2.246;2022-11-20T05:54:18;2.17;;;1.65;;
40717;SDS011;26405;51.850;-2.246;2022-11-20T05:56:43;3.40;;;2.00;;
40717;SDS011;26405;51.850;-2.246;2022-11-20T05:59:09;4.00;;;1.80;;
40717;SDS011;26405;51.850;-2.246;2022-11-20T06:01:34;2.55;;;1.70;;
40717;SDS011;26405;51.850;-2.246;2022-11-20T06:04:01;3.15;;;1.80;;
40717;SDS011;26405;51.850;-2.246;2022-11-20T06:06:26;2.28;;;1.50;;
40717;SDS011;26405;51.850;-2.246;2022-11-20T06:08:51;5.50;;;2.05;;
40717;SDS011;26405;51.850;-2.246;2022-11-20T06:11:20;2.92;;;1.90;;
40717;SDS011;26405;51.850;-2.246;2022-11-20T06:13:45;4.35;;;1.92;;
40717;SDS011;26405;51.850;-2.246;2022-11-20T06:16:11;3.53;;;1.90;;
40717;SDS011;26405;51.850;-2.246;2022-11-20T06:18:38;2.20;;;1.70;;
40717;SDS011;26405;51.850;-2.246;2022-11-20T06:21:07;2.83;;;1.63;;
40717;SDS011;26405;51.850;-2.246;2022-11-20T06:23:33;4.65;;;2.03;;
40717;SDS011;26405;51.850;-2.246;2022-11-20T06:26:09;3.70;;;1.83;;
40717;SDS011;26405;51.850;-2.246;2022-11-20T06:28:34;4.60;;;1.90;;
40717;SDS011;26405;51.850;-2.246;2022-11-20T06:31:00;7.53;;;2.13;;
40717;SDS011;26405;51.850;-2.246;2022-11-20T06:33:25;3.92;;;1.75;;
40717;SDS011;26405;51.850;-2.246;2022-11-20T06:35:51;2.75;;;1.95;;
40717;SDS011;26405;51.850;-2.246;2022-11-20T06:38:16;2.90;;;1.67;;
40717;SDS011;26405;51.850;-2.246;2022-11-20T06:40:42;2.97;;;1.80;;
40717;SDS011;26405;51.850;-2.246;2022-11-20T06:43:08;3.17;;;1.80;;
40717;SDS011;26405;51.850;-2.246;2022-11-20T06:45:33;4.35;;;1.90;;
40717;SDS011;26405;51.850;-2.246;2022-11-20T06:47:58;3.63;;;2.05;;
40717;SDS011;26405;51.850;-2.246;2022-11-20T06:50:24;4.85;;;2.20;;
40717;SDS011;26405;51.850;-2.246;2022-11-20T06:52:49;5.20;;;2.10;;
40717;SDS011;26405;51.850;-2.246;2022-11-20T06:55:14;7.30;;;2.17;;
40717;SDS011;26405;51.850;-2.246;2022-11-20T06:57:39;6.43;;;2.28;;
40717;SDS011;26405;51.850;-2.246;2022-11-20T07:00:05;5.03;;;2.13;;
40717;SDS011;26405;51.850;-2.246;2022-11-20T07:02:30;9.63;;;2.17;;
40717;SDS011;26405;51.850;-2.246;2022-11-20T07:04:56;6.88;;;2.13;;
40717;SDS011;26405;51.850;-2.246;2022-11-20T07:07:21;8.75;;;2.30;;
40717;SDS011;26405;51.850;-2.246;2022-11-20T07:09:46;10.20;;;2.45;;
40717;SDS011;26405;51.850;-2.246;2022-11-20T07:12:11;10.02;;;2.75;;
40717;SDS011;26405;51.850;-2.246;2022-11-20T07:14:37;7.78;;;2.25;;
40717;SDS011;26405;51.850;-2.246;2022-11-20T07:17:02;8.07;;;2.50;;
40717;SDS011;26405;51.850;-2.246;2022-11-20T07:19:27;11.05;;;2.50;;
40717;SDS011;26405;51.850;-2.246;2022-11-20T07:21:53;8.52;;;2.70;;
40717;SDS011;26405;51.850;-2.246;2022-11-20T07:24:18;6.75;;;2.38;;
40717;SDS011;26405;51.850;-2.246;2022-11-20T07:26:45;7.82;;;2.30;;
40717;SDS011;26405;51.850;-2.246;2022-11-20T07:29:11;9.35;;;2.60;;
40717;SDS011;26405;51.850;-2.246;2022-11-20T07:31:36;9.05;;;2.83;;
40717;SDS011;26405;51.850;-2.246;2022-11-20T07:34:01;10.82;;;2.78;;
40717;SDS011;26405;51.850;-2.246;2022-11-20T07:36:27;11.95;;;3.00;;
40717;SDS011;26405;51.850;-2.246;2022-11-20T07:38:55;15.13;;;3.40;;
40717;SDS011;26405;51.850;-2.246;2022-11-20T07:41:20;12.82;;;2.90;;
40717;SDS011;26405;51.850;-2.246;2022-11-20T07:43:45;11.35;;;3.10;;
40717;SDS011;26405;51.850;-2.246;2022-11-20T07:46:10;14.77;;;3.95;;
40717;SDS011;26405;51.850;-2.246;2022-11-20T07:48:36;15.30;;;4.07;;
40717;SDS011;26405;51.850;-2.246;2022-11-20T07:51:01;11.35;;;3.33;;
40717;SDS011;26405;51.850;-2.246;2022-11-20T07:53:26;12.98;;;3.30;;
40717;SDS011;26405;51.850;-2.246;2022-11-20T07:55:52;13.02;;;3.45;;
40717;SDS011;26405;51.850;-2.246;2022-11-20T07:58:17;12.02;;;3.40;;
40717;SDS011;26405;51.850;-2.246;2022-11-20T08:00:43;13.38;;;3.25;;
40717;SDS011;26405;51.850;-2.246;2022-11-20T08:03:08;11.73;;;3.38;;
40717;SDS011;26405;51.850;-2.246;2022-11-20T08:05:33;12.75;;;3.50;;
40717;SDS011;26405;51.850;-2.246;2022-11-20T08:07:58;14.35;;;4.07;;
40717;SDS011;26405;51.850;-2.246;2022-11-20T08:10:24;16.70;;;3.38;;
40717;SDS011;26405;51.850;-2.246;2022-11-20T08:12:50;15.02;;;3.38;;
40717;SDS011;26405;51.850;-2.246;2022-11-20T08:15:34;11.98;;;2.90;;
40717;SDS011;26405;51.850;-2.246;2022-11-20T08:18:01;13.52;;;3.20;;
40717;SDS011;26405;51.850;-2.246;2022-11-20T08:20:26;13.33;;;3.33;;
40717;SDS011;26405;51.850;-2.246;2022-11-20T08:22:51;15.07;;;3.45;;
40717;SDS011;26405;51.850;-2.246;2022-11-20T08:25:17;17.20;;;3.72;;
40717;SDS011;26405;51.850;-2.246;2022-11-20T08:27:42;15.05;;;3.05;;
40717;SDS011;26405;51.850;-2.246;2022-11-20T08:30:07;16.42;;;3.53;;
40717;SDS011;26405;51.850;-2.246;2022-11-20T08:32:33;15.98;;;3.30;;
40717;SDS011;26405;51.850;-2.246;2022-11-20T08:35:00;16.23;;;3.60;;
40717;SDS011;26405;51.850;-2.246;2022-11-20T08:37:25;16.40;;;3.60;;
40717;SDS011;26405;51.850;-2.246;2022-11-20T08:39:51;23.98;;;4.30;;
40717;SDS011;26405;51.850;-2.246;2022-11-20T08:44:43;12.98;;;3.35;;
40717;SDS011;26405;51.850;-2.246;2022-11-20T08:47:08;17.88;;;3.72;;
40717;SDS011;26405;51.850;-2.246;2022-11-20T08:49:34;17.92;;;3.92;;
40717;SDS011;26405;51.850;-2.246;2022-11-20T08:51:59;16.60;;;4.13;;
40717;SDS011;26405;51.850;-2.246;2022-11-20T08:54:24;19.50;;;3.80;;
40717;SDS011;26405;51.850;-2.246;2022-11-20T08:56:49;20.15;;;4.15;;
40717;SDS011;26405;51.850;-2.246;2022-11-20T08:59:15;21.25;;;3.63;;
40717;SDS011;26405;51.850;-2.246;2022-11-20T09:01:40;18.05;;;3.88;;
40717;SDS011;26405;51.850;-2.246;2022-11-20T09:04:05;20.58;;;4.43;;
40717;SDS011;26405;51.850;-2.246;2022-11-20T09:06:31;20.33;;;4.65;;
40717;SDS011;26405;51.850;-2.246;2022-11-20T09:08:56;19.50;;;4.32;;
40717;SDS011;26405;51.850;-2.246;2022-11-20T09:11:22;21.73;;;4.53;;
40717;SDS011;26405;51.850;-2.246;2022-11-20T09:13:47;16.90;;;3.92;;
40717;SDS011;26405;51.850;-2.246;2022-11-20T09:16:12;20.23;;;4.50;;
40717;SDS011;26405;51.850;-2.246;2022-11-20T09:18:37;21.25;;;4.78;;
40717;SDS011;26405;51.850;-2.246;2022-11-20T09:21:05;18.02;;;4.93;;
40717;SDS011;26405;51.850;-2.246;2022-11-20T09:25:55;15.73;;;3.92;;
40717;SDS011;26405;51.850;-2.246;2022-11-20T09:28:24;16.05;;;4.10;;
40717;SDS011;26405;51.850;-2.246;2022-11-20T09:30:52;21.38;;;5.25;;
40717;SDS011;26405;51.850;-2.246;2022-11-20T09:33:18;25.87;;;5.07;;
40717;SDS011;26405;51.850;-2.246;2022-11-20T09:35:43;30.27;;;10.63;;
40717;SDS011;26405;51.850;-2.246;2022-11-20T09:38:09;22.45;;;7.18;;
40717;SDS011;26405;51.850;-2.246;2022-11-20T09:40:36;20.48;;;5.15;;
40717;SDS011;26405;51.850;-2.246;2022-11-20T09:43:20;22.65;;;6.10;;
40717;SDS011;26405;51.850;-2.246;2022-11-20T09:54:00;18.92;;;4.78;;
40717;SDS011;26405;51.850;-2.246;2022-11-20T09:56:27;41.28;;;16.05;;
40717;SDS011;26405;51.850;-2.246;2022-11-20T09:59:03;33.40;;;11.10;;
40717;SDS011;26405;51.850;-2.246;2022-11-20T10:01:31;26.20;;;7.28;;
40717;SDS011;26405;51.850;-2.246;2022-11-20T10:04:09;28.00;;;9.07;;
40717;SDS011;26405;51.850;-2.246;2022-11-20T10:06:43;28.92;;;8.60;;
40717;SDS011;26405;51.850;-2.246;2022-11-20T10:16:47;23.20;;;6.90;;
40717;SDS011;26405;51.850;-2.246;2022-11-20T10:19:25;21.27;;;6.05;;
40717;SDS011;26405;51.850;-2.246;2022-11-20T10:29:15;22.50;;;7.07;;
40717;SDS011;26405;51.850;-2.246;2022-11-20T10:31:41;32.60;;;11.07;;
40717;SDS011;26405;51.850;-2.246;2022-11-20T10:34:12;19.08;;;4.85;;
40717;SDS011;26405;51.850;-2.246;2022-11-20T10:36:44;29.30;;;9.93;;
40717;SDS011;26405;51.850;-2.246;2022-11-20T10:39:16;23.13;;;5.35;;
40717;SDS011;26405;51.850;-2.246;2022-11-20T10:41:43;20.67;;;5.35;;
40717;SDS011;26405;51.850;-2.246;2022-11-20T10:44:14;20.77;;;4.95;;
40717;SDS011;26405;51.850;-2.246;2022-11-20T10:46:40;20.08;;;5.45;;
40717;SDS011;26405;51.850;-2.246;2022-11-20T10:49:17;26.02;;;8.05;;
40717;SDS011;26405;51.850;-2.246;2022-11-20T10:56:42;27.30;;;8.23;;
40717;SDS011;26405;51.850;-2.246;2022-11-20T11:01:52;20.45;;;4.40;;
40717;SDS011;26405;51.850;-2.246;2022-11-20T11:06:48;20.00;;;4.82;;
40717;SDS011;26405;51.850;-2.246;2022-11-20T11:09:21;20.65;;;5.10;;
40717;SDS011;26405;51.850;-2.246;2022-11-20T11:11:49;20.35;;;5.10;;
40717;SDS011;26405;51.850;-2.246;2022-11-20T11:14:15;18.35;;;4.80;;
40717;SDS011;26405;51.850;-2.246;2022-11-20T11:16:50;24.50;;;4.88;;
40717;SDS011;26405;51.850;-2.246;2022-11-20T11:19:16;21.27;;;6.05;;
40717;SDS011;26405;51.850;-2.246;2022-11-20T11:22:16;25.58;;;7.45;;
40717;SDS011;26405;51.850;-2.246;2022-11-20T11:24:33;22.88;;;5.45;;
40717;SDS011;26405;51.850;-2.246;2022-11-20T11:27:19;20.40;;;5.17;;
40717;SDS011;26405;51.850;-2.246;2022-11-20T11:29:44;21.63;;;4.30;;
40717;SDS011;26405;51.850;-2.246;2022-11-20T11:32:27;24.92;;;4.80;;
40717;SDS011;26405;51.850;-2.246;2022-11-20T11:35:02;22.70;;;5.50;;
40717;SDS011;26405;51.850;-2.246;2022-11-20T11:37:32;21.40;;;4.50;;
40717;SDS011;26405;51.850;-2.246;2022-11-20T11:39:58;23.80;;;4.70;;
40717;SDS011;26405;51.850;-2.246;2022-11-20T11:42:24;21.65;;;4.55;;
40717;SDS011;26405;51.850;-2.246;2022-11-20T11:44:49;22.35;;;4.88;;
40717;SDS011;26405;51.850;-2.246;2022-11-20T11:47:35;21.23;;;4.88;;
40717;SDS011;26405;51.850;-2.246;2022-11-20T11:50:02;20.27;;;4.55;;
40717;SDS011;26405;51.850;-2.246;2022-11-20T11:52:27;20.50;;;4.40;;
40717;SDS011;26405;51.850;-2.246;2022-11-20T11:54:53;20.85;;;4.90;;
40717;SDS011;26405;51.850;-2.246;2022-11-20T12:02:36;23.45;;;5.03;;
40717;SDS011;26405;51.850;-2.246;2022-11-20T12:05:10;24.67;;;4.85;;
40717;SDS011;26405;51.850;-2.246;2022-11-20T12:10:05;18.17;;;4.75;;
40717;SDS011;26405;51.850;-2.246;2022-11-20T12:12:41;21.50;;;5.40;;
40717;SDS011;26405;51.850;-2.246;2022-11-20T12:15:11;20.58;;;4.57;;
40717;SDS011;26405;51.850;-2.246;2022-11-20T12:17:37;23.23;;;5.70;;
40717;SDS011;26405;51.850;-2.246;2022-11-20T12:20:13;24.20;;;5.05;;
40717;SDS011;26405;51.850;-2.246;2022-11-20T12:25:22;20.77;;;4.82;;
40717;SDS011;26405;51.850;-2.246;2022-11-20T12:30:17;18.45;;;4.43;;
40717;SDS011;26405;51.850;-2.246;2022-11-20T12:35:22;24.55;;;5.47;;
40717;SDS011;26405;51.850;-2.246;2022-11-20T12:43:05;18.85;;;4.60;;
40717;SDS011;26405;51.850;-2.246;2022-11-20T12:45:54;18.48;;;4.55;;
40717;SDS011;26405;51.850;-2.246;2022-11-20T12:48:34;18.85;;;4.95;;
40717;SDS011;26405;51.850;-2.246;2022-11-20T13:04:16;8.70;;;2.22;;
40717;SDS011;26405;51.850;-2.246;2022-11-20T13:06:44;8.15;;;2.05;;
40717;SDS011;26405;51.850;-2.246;2022-11-20T13:09:12;7.60;;;2.33;;
40717;SDS011;26405;51.850;-2.246;2022-11-20T13:19:54;5.07;;;1.85;;
40717;SDS011;26405;51.850;-2.246;2022-11-20T13:22:41;4.93;;;1.60;;
40717;SDS011;26405;51.850;-2.246;2022-11-20T13:25:08;3.00;;;1.50;;
40717;SDS011;26405;51.850;-2.246;2022-11-20T13:27:34;1.70;;;1.30;;
40717;SDS011;26405;51.850;-2.246;2022-11-20T13:30:00;2.05;;;1.50;;
40717;SDS011;26405;51.850;-2.246;2022-11-20T13:32:26;2.10;;;1.50;;
40717;SDS011;26405;51.850;-2.246;2022-11-20T13:35:01;4.65;;;1.52;;
40717;SDS011;26405;51.850;-2.246;2022-11-20T13:37:28;2.75;;;1.63;;
40717;SDS011;26405;51.850;-2.246;2022-11-20T13:40:04;3.00;;;1.73;;
40717;SDS011;26405;51.850;-2.246;2022-11-20T13:42:30;2.15;;;1.58;;
40717;SDS011;26405;51.850;-2.246;2022-11-20T13:44:55;2.97;;;1.45;;
40717;SDS011;26405;51.850;-2.246;2022-11-20T13:47:26;2.47;;;1.80;;
40717;SDS011;26405;51.850;-2.246;2022-11-20T13:49:51;4.32;;;1.77;;
40717;SDS011;26405;51.850;-2.246;2022-11-20T13:52:39;3.67;;;1.83;;
40717;SDS011;26405;51.850;-2.246;2022-11-20T13:57:56;1.67;;;1.42;;
40717;SDS011;26405;51.850;-2.246;2022-11-20T14:00:25;5.05;;;2.13;;
40717;SDS011;26405;51.850;-2.246;2022-11-20T14:05:31;3.10;;;1.73;;
40717;SDS011;26405;51.850;-2.246;2022-11-20T14:07:59;3.35;;;1.67;;
40717;SDS011;26405;51.850;-2.246;2022-11-20T14:10:26;4.10;;;2.22;;
40717;SDS011;26405;51.850;-2.246;2022-11-20T14:12:51;4.90;;;1.92;;
40717;SDS011;26405;51.850;-2.246;2022-11-20T14:15:30;4.68;;;2.00;;
40717;SDS011;26405;51.850;-2.246;2022-11-20T14:17:57;4.85;;;1.80;;
40717;SDS011;26405;51.850;-2.246;2022-11-20T14:20:23;6.45;;;1.95;;
40717;SDS011;26405;51.850;-2.246;2022-11-20T14:22:50;5.72;;;2.00;;
40717;SDS011;26405;51.850;-2.246;2022-11-20T14:27:43;5.45;;;2.05;;
40717;SDS011;26405;51.850;-2.246;2022-11-20T14:30:16;3.33;;;1.80;;
40717;SDS011;26405;51.850;-2.246;2022-11-20T14:32:42;4.70;;;2.00;;
40717;SDS011;26405;51.850;-2.246;2022-11-20T14:35:08;3.45;;;1.48;;
40717;SDS011;26405;51.850;-2.246;2022-11-20T14:37:36;3.38;;;1.70;;
40717;SDS011;26405;51.850;-2.246;2022-11-20T14:40:02;3.63;;;1.80;;
40717;SDS011;26405;51.850;-2.246;2022-11-20T14:42:28;4.33;;;1.80;;
40717;SDS011;26405;51.850;-2.246;2022-11-20T14:44:58;3.90;;;1.77;;
40717;SDS011;26405;51.850;-2.246;2022-11-20T14:47:29;2.83;;;1.48;;
40717;SDS011;26405;51.850;-2.246;2022-11-20T14:49:55;2.40;;;1.40;;
40717;SDS011;26405;51.850;-2.246;2022-11-20T14:52:22;4.30;;;1.48;;
40717;SDS011;26405;51.850;-2.246;2022-11-20T14:54:49;3.10;;;1.50;;
40717;SDS011;26405;51.850;-2.246;2022-11-20T15:02:32;4.75;;;2.00;;
40717;SDS011;26405;51.850;-2.246;2022-11-20T15:04:58;3.50;;;1.90;;
40717;SDS011;26405;51.850;-2.246;2022-11-20T15:07:28;4.17;;;2.10;;
40717;SDS011;26405;51.850;-2.246;2022-11-20T15:10:00;6.15;;;2.30;;
40717;SDS011;26405;51.850;-2.246;2022-11-20T15:12:26;4.25;;;1.70;;
40717;SDS011;26405;51.850;-2.246;2022-11-20T15:14:51;3.60;;;1.55;;
40717;SDS011;26405;51.850;-2.246;2022-11-20T15:17:16;5.07;;;1.90;;
40717;SDS011;26405;51.850;-2.246;2022-11-20T15:19:41;6.25;;;1.88;;
40717;SDS011;26405;51.850;-2.246;2022-11-20T15:22:09;4.27;;;1.53;;
40717;SDS011;26405;51.850;-2.246;2022-11-20T15:24:37;1.77;;;1.50;;
40717;SDS011;26405;51.850;-2.246;2022-11-20T15:27:02;2.88;;;1.90;;
40717;SDS011;26405;51.850;-2.246;2022-11-20T15:29:28;5.53;;;2.08;;
40717;SDS011;26405;51.850;-2.246;2022-11-20T15:31:53;4.32;;;1.83;;
40717;SDS011;26405;51.850;-2.246;2022-11-20T15:34:19;5.17;;;1.80;;
40717;SDS011;26405;51.850;-2.246;2022-11-20T15:36:44;7.57;;;2.20;;
40717;SDS011;26405;51.850;-2.246;2022-11-20T15:39:10;7.70;;;2.22;;
40717;SDS011;26405;51.850;-2.246;2022-11-20T15:41:36;6.33;;;2.50;;
40717;SDS011;26405;51.850;-2.246;2022-11-20T15:44:02;4.47;;;2.08;;
40717;SDS011;26405;51.850;-2.246;2022-11-20T15:46:28;4.68;;;2.00;;
40717;SDS011;26405;51.850;-2.246;2022-11-20T15:48:54;4.70;;;2.03;;
40717;SDS011;26405;51.850;-2.246;2022-11-20T15:51:36;6.37;;;1.97;;
40717;SDS011;26405;51.850;-2.246;2022-11-20T15:54:12;5.85;;;1.85;;
40717;SDS011;26405;51.850;-2.246;2022-11-20T15:56:42;5.78;;;2.40;;
40717;SDS011;26405;51.850;-2.246;2022-11-20T15:59:10;7.88;;;2.70;;
40717;SDS011;26405;51.850;-2.246;2022-11-20T16:01:35;5.00;;;2.40;;
40717;SDS011;26405;51.850;-2.246;2022-11-20T16:04:01;7.65;;;2.78;;
40717;SDS011;26405;51.850;-2.246;2022-11-20T16:06:26;9.63;;;3.38;;
40717;SDS011;26405;51.850;-2.246;2022-11-20T16:08:51;7.82;;;3.00;;
40717;SDS011;26405;51.850;-2.246;2022-11-20T16:11:17;7.10;;;2.95;;
40717;SDS011;26405;51.850;-2.246;2022-11-20T16:13:42;9.43;;;3.38;;
40717;SDS011;26405;51.850;-2.246;2022-11-20T16:16:31;7.15;;;2.90;;